sensor_id;sensor_type;location;lat;lon;timestamp;P1;durP1;ratioP1;P2;durP2;ratioP2
36923;SDS011;22841;50.252;18.688;2023-02-03T10:56:51;26.92;;;14.15;;
36923;SDS011;22841;50.252;18.688;2023-02-03T10:59:29;25.40;;;13.10;;
36923;SDS011;22841;50.252;18.688;2023-02-03T11:04:34;19.10;;;11.05;;
36923;SDS011;22841;50.252;18.688;2023-02-03T11:07:02;26.05;;;12.85;;
36923;SDS011;22841;50.252;18.688;2023-02-03T11:09:37;25.10;;;12.48;;
36923;SDS011;22841;50.252;18.688;2023-02-03T11:45:47;28.05;;;13.82;;
36923;SDS011;22841;50.252;18.688;2023-02-03T11:59:02;28.17;;;13.52;;
36923;SDS011;22841;50.252;18.688;2023-02-03T12:02:30;25.98;;;13.07;;
36923;SDS011;22841;50.252;18.688;2023-02-03T12:07:48;24.23;;;11.75;;
36923;SDS011;22841;50.252;18.688;2023-02-03T12:24:55;22.08;;;10.75;;
36923;SDS011;22841;50.252;18.688;2023-02-03T12:28:04;20.80;;;10.50;;
36923;SDS011;22841;50.252;18.688;2023-02-03T12:30:42;22.73;;;11.02;;
36923;SDS011;22841;50.252;18.688;2023-02-03T12:33:37;22.65;;;11.23;;
36923;SDS011;22841;50.252;18.688;2023-02-03T12:36:14;18.83;;;10.63;;
36923;SDS011;22841;50.252;18.688;2023-02-03T12:41:29;18.20;;;10.68;;
36923;SDS011;22841;50.252;18.688;2023-02-03T12:44:00;20.27;;;11.02;;
36923;SDS011;22841;50.252;18.688;2023-02-03T12:47:15;23.42;;;10.68;;
36923;SDS011;22841;50.252;18.688;2023-02-03T12:50:15;18.77;;;10.93;;
36923;SDS011;22841;50.252;18.688;2023-02-03T13:46:46;24.10;;;9.82;;
36923;SDS011;22841;50.252;18.688;2023-02-03T13:52:51;22.02;;;9.43;;
36923;SDS011;22841;50.252;18.688;2023-02-03T13:59:39;20.10;;;10.67;;
36923;SDS011;22841;50.252;18.688;2023-02-03T14:12:30;17.52;;;9.48;;
36923;SDS011;22841;50.252;18.688;2023-02-03T14:14:59;24.92;;;11.30;;
36923;SDS011;22841;50.252;18.688;2023-02-03T14:20:52;20.00;;;11.60;;
36923;SDS011;22841;50.252;18.688;2023-02-03T14:26:22;24.00;;;11.82;;
36923;SDS011;22841;50.252;18.688;2023-02-03T14:29:03;16.17;;;9.35;;
36923;SDS011;22841;50.252;18.688;2023-02-03T14:31:30;20.20;;;10.90;;
36923;SDS011;22841;50.252;18.688;2023-02-03T14:34:04;21.98;;;9.45;;
36923;SDS011;22841;50.252;18.688;2023-02-03T14:36:45;23.35;;;10.68;;
36923;SDS011;22841;50.252;18.688;2023-02-03T14:41:48;19.67;;;8.90;;
36923;SDS011;22841;50.252;18.688;2023-02-03T17:13:10;30.60;;;9.23;;
36923;SDS011;22841;50.252;18.688;2023-02-03T17:15:40;44.88;;;10.68;;
36923;SDS011;22841;50.252;18.688;2023-02-03T17:18:11;31.95;;;8.20;;
36923;SDS011;22841;50.252;18.688;2023-02-03T17:20:39;22.30;;;7.60;;
36923;SDS011;22841;50.252;18.688;2023-02-03T17:23:07;28.13;;;9.02;;
36923;SDS011;22841;50.252;18.688;2023-02-03T17:25:33;24.92;;;8.57;;
36923;SDS011;22841;50.252;18.688;2023-02-03T17:28:01;37.55;;;11.57;;
36923;SDS011;22841;50.252;18.688;2023-02-03T17:30:28;26.65;;;7.45;;
36923;SDS011;22841;50.252;18.688;2023-02-03T17:32:59;28.65;;;6.55;;
36923;SDS011;22841;50.252;18.688;2023-02-03T17:35:26;27.30;;;8.40;;
36923;SDS011;22841;50.252;18.688;2023-02-03T17:37:53;23.63;;;7.18;;
36923;SDS011;22841;50.252;18.688;2023-02-03T17:48:07;36.75;;;11.40;;
36923;SDS011;22841;50.252;18.688;2023-02-03T17:50:34;56.97;;;17.23;;
36923;SDS011;22841;50.252;18.688;2023-02-03T18:29:22;25.23;;;8.43;;
36923;SDS011;22841;50.252;18.688;2023-02-03T18:31:50;36.72;;;9.75;;
36923;SDS011;22841;50.252;18.688;2023-02-03T18:47:30;19.98;;;6.35;;
36923;SDS011;22841;50.252;18.688;2023-02-03T18:49:57;22.45;;;6.85;;
36923;SDS011;22841;50.252;18.688;2023-02-03T18:52:23;23.35;;;5.90;;
36923;SDS011;22841;50.252;18.688;2023-02-03T18:57:26;26.05;;;6.15;;
36923;SDS011;22841;50.252;18.688;2023-02-03T18:59:52;43.67;;;9.35;;
36923;SDS011;22841;50.252;18.688;2023-02-03T19:10:53;23.55;;;5.85;;
36923;SDS011;22841;50.252;18.688;2023-02-03T19:34:07;30.67;;;6.65;;
36923;SDS011;22841;50.252;18.688;2023-02-03T19:41:40;45.28;;;11.77;;
36923;SDS011;22841;50.252;18.688;2023-02-03T22:40:52;39.03;;;9.30;;
36923;SDS011;22841;50.252;18.688;2023-02-03T22:43:18;42.00;;;8.38;;
36923;SDS011;22841;50.252;18.688;2023-02-03T22:45:45;34.92;;;8.88;;
36923;SDS011;22841;50.252;18.688;2023-02-03T22:48:11;42.03;;;13.15;;
36923;SDS011;22841;50.252;18.688;2023-02-03T22:50:37;37.60;;;10.50;;
36923;SDS011;22841;50.252;18.688;2023-02-03T22:53:03;40.47;;;8.93;;
36923;SDS011;22841;50.252;18.688;2023-02-03T22:55:30;25.95;;;7.78;;
36923;SDS011;22841;50.252;18.688;2023-02-03T22:57:57;34.45;;;8.35;;
36923;SDS011;22841;50.252;18.688;2023-02-03T23:00:24;43.05;;;7.85;;
36923;SDS011;22841;50.252;18.688;2023-02-03T23:02:50;21.13;;;5.72;;
36923;SDS011;22841;50.252;18.688;2023-02-03T23:05:17;23.52;;;6.00;;
36923;SDS011;22841;50.252;18.688;2023-02-03T23:07:43;30.42;;;7.20;;
36923;SDS011;22841;50.252;18.688;2023-02-03T23:10:14;28.83;;;6.60;;
36923;SDS011;22841;50.252;18.688;2023-02-03T23:12:45;34.13;;;7.93;;
36923;SDS011;22841;50.252;18.688;2023-02-03T23:15:11;14.95;;;5.35;;
36923;SDS011;22841;50.252;18.688;2023-02-03T23:17:38;25.30;;;6.00;;
36923;SDS011;22841;50.252;18.688;2023-02-03T23:20:04;23.73;;;5.63;;
36923;SDS011;22841;50.252;18.688;2023-02-03T23:22:32;18.50;;;6.05;;
36923;SDS011;22841;50.252;18.688;2023-02-03T23:24:58;25.40;;;7.15;;
36923;SDS011;22841;50.252;18.688;2023-02-03T23:27:25;25.33;;;7.28;;
36923;SDS011;22841;50.252;18.688;2023-02-03T23:29:51;15.68;;;6.35;;
36923;SDS011;22841;50.252;18.688;2023-02-03T23:32:17;23.23;;;6.60;;
36923;SDS011;22841;50.252;18.688;2023-02-03T23:34:44;23.77;;;8.85;;
36923;SDS011;22841;50.252;18.688;2023-02-03T23:37:29;9.05;;;3.95;;
36923;SDS011;22841;50.252;18.688;2023-02-03T23:39:55;15.45;;;4.80;;
36923;SDS011;22841;50.252;18.688;2023-02-03T23:42:21;20.38;;;6.25;;
36923;SDS011;22841;50.252;18.688;2023-02-03T23:44:47;22.73;;;6.53;;
36923;SDS011;22841;50.252;18.688;2023-02-03T23:47:13;11.90;;;5.10;;
36923;SDS011;22841;50.252;18.688;2023-02-03T23:49:39;22.90;;;5.45;;
36923;SDS011;22841;50.252;18.688;2023-02-03T23:52:05;16.58;;;5.88;;
36923;SDS011;22841;50.252;18.688;2023-02-03T23:54:31;13.18;;;5.43;;
36923;SDS011;22841;50.252;18.688;2023-02-03T23:56:58;20.35;;;4.70;;
36923;SDS011;22841;50.252;18.688;2023-02-03T23:59:24;16.20;;;4.43;;
